createdAt,value
2022-09-29T00:00:09.555Z,6.47
2022-09-29T00:02:37.364Z,8.95
2022-09-29T00:05:08.695Z,5.40
2022-09-29T00:07:36.394Z,7.57
2022-09-29T00:10:04.630Z,4.65
2022-09-29T00:12:33.708Z,4.40
2022-09-29T00:15:13.854Z,5.82
2022-09-29T00:17:49.660Z,5.90
2022-09-29T00:20:29.298Z,8.30
2022-09-29T00:22:57.048Z,7.25
2022-09-29T00:25:37.009Z,9.55
2022-09-29T00:28:06.172Z,15.00
2022-09-29T00:30:33.927Z,6.38
2022-09-29T00:33:01.672Z,5.45
2022-09-29T00:35:41.751Z,6.15
2022-09-29T00:38:09.501Z,5.00
2022-09-29T00:40:37.210Z,5.57
2022-09-29T00:43:12.690Z,7.70
2022-09-29T00:45:40.540Z,9.85
2022-09-29T00:48:14.058Z,7.80
2022-09-29T00:50:46.068Z,7.05
2022-09-29T00:53:20.569Z,6.20
2022-09-29T00:55:53.740Z,5.97
2022-09-29T00:58:31.367Z,7.65
2022-09-29T01:00:59.288Z,8.27
2022-09-29T01:03:32.095Z,7.70
2022-09-29T01:06:04.095Z,8.25
2022-09-29T01:08:37.474Z,6.70
2022-09-29T01:11:05.953Z,10.50
2022-09-29T01:13:36.211Z,10.02
2022-09-29T01:16:04.008Z,6.30
2022-09-29T01:18:32.897Z,5.93
2022-09-29T01:21:18.776Z,9.55
2022-09-29T01:24:09.914Z,7.30
2022-09-29T01:27:05.939Z,14.38
2022-09-29T01:30:16.145Z,9.27
2022-09-29T01:33:18.625Z,10.02
2022-09-29T01:35:55.977Z,12.77
2022-09-29T01:38:40.276Z,12.45
2022-09-29T01:41:14.225Z,11.30
2022-09-29T01:43:50.435Z,10.57
2022-09-29T01:46:23.686Z,11.45
2022-09-29T01:48:56.747Z,11.20
2022-09-29T01:51:29.116Z,9.93
2022-09-29T01:54:04.565Z,10.73
2022-09-29T01:56:38.926Z,12.18
2022-09-29T01:59:14.214Z,10.77
2022-09-29T02:01:44.886Z,9.07
2022-09-29T02:04:19.765Z,9.80
2022-09-29T02:06:54.076Z,9.55
2022-09-29T02:09:26.552Z,9.30
2022-09-29T02:11:57.614Z,9.48
2022-09-29T02:14:29.728Z,8.70
2022-09-29T02:17:01.720Z,9.18
2022-09-29T02:19:35.220Z,10.07
2022-09-29T02:22:03.173Z,9.98
2022-09-29T02:24:31.961Z,9.63
2022-09-29T02:26:59.911Z,10.48
2022-09-29T02:29:28.250Z,11.15
2022-09-29T02:32:01.483Z,10.23
2022-09-29T02:34:33.351Z,10.95
2022-09-29T02:37:07.918Z,11.43
2022-09-29T02:40:01.309Z,12.63
2022-09-29T02:45:40.309Z,11.48
2022-09-29T02:48:37.687Z,10.70
2022-09-29T02:51:18.233Z,15.50
2022-09-29T02:53:58.213Z,14.90
2022-09-29T02:56:34.670Z,14.07
2022-09-29T02:59:08.217Z,15.13
2022-09-29T03:01:36.141Z,15.25
2022-09-29T03:04:04.893Z,15.45
2022-09-29T03:06:34.254Z,15.43
2022-09-29T03:09:01.924Z,15.63
2022-09-29T03:11:29.631Z,16.63
2022-09-29T03:13:57.986Z,17.00
2022-09-29T03:16:25.794Z,14.52
2022-09-29T03:18:53.585Z,18.45
2022-09-29T03:21:21.269Z,17.33
2022-09-29T03:23:53.143Z,17.42
2022-09-29T03:26:24.891Z,18.40
2022-09-29T03:28:53.334Z,15.48
2022-09-29T03:31:21.370Z,17.30
2022-09-29T03:33:49.809Z,15.65
2022-09-29T03:36:18.088Z,15.18
2022-09-29T03:38:47.250Z,17.48
2022-09-29T03:41:16.736Z,13.10
2022-09-29T03:43:44.429Z,14.43
2022-09-29T03:46:12.196Z,15.80
2022-09-29T03:48:41.328Z,15.90
2022-09-29T03:51:10.203Z,15.75
2022-09-29T03:53:38.434Z,17.35
2022-09-29T03:56:06.690Z,13.95
2022-09-29T03:58:36.104Z,14.85
2022-09-29T04:01:03.991Z,14.85
2022-09-29T04:03:31.694Z,14.95
2022-09-29T04:05:59.511Z,14.75
2022-09-29T04:08:27.255Z,15.63
2022-09-29T04:10:54.932Z,13.80
2022-09-29T04:13:22.667Z,16.98
2022-09-29T04:15:51.862Z,14.27
2022-09-29T04:18:19.547Z,17.30
2022-09-29T04:20:47.281Z,16.13
2022-09-29T04:23:14.970Z,17.58
2022-09-29T04:25:42.708Z,16.38
2022-09-29T04:28:10.537Z,19.98
2022-09-29T04:30:41.414Z,20.90
2022-09-29T04:33:10.694Z,17.52
2022-09-29T04:35:38.411Z,19.70
2022-09-29T04:38:08.195Z,15.45
2022-09-29T04:40:36.112Z,14.88
2022-09-29T04:43:04.443Z,17.05
2022-09-29T04:45:35.075Z,19.02
2022-09-29T04:48:02.952Z,18.40
2022-09-29T04:50:32.149Z,32.28
2022-09-29T04:53:00.587Z,16.98
2022-09-29T04:55:40.353Z,16.65
2022-09-29T04:58:08.275Z,18.75
2022-09-29T05:00:36.050Z,15.02
2022-09-29T05:03:04.396Z,14.30
2022-09-29T05:05:33.433Z,18.25
2022-09-29T05:08:04.202Z,16.55
2022-09-29T05:10:32.165Z,16.30
2022-09-29T05:12:59.940Z,14.38
2022-09-29T05:15:39.674Z,13.95
2022-09-29T05:18:07.410Z,12.02
2022-09-29T05:20:42.865Z,18.42
2022-09-29T05:23:14.972Z,15.25
2022-09-29T05:25:43.910Z,15.73
2022-09-29T05:28:11.769Z,16.67
2022-09-29T05:30:39.942Z,14.85
2022-09-29T05:33:07.713Z,16.45
2022-09-29T05:35:36.816Z,21.38
2022-09-29T05:38:04.803Z,18.10
2022-09-29T05:40:38.612Z,21.40
2022-09-29T05:43:06.568Z,25.85
2022-09-29T05:45:34.341Z,23.77
2022-09-29T05:48:02.498Z,25.92
2022-09-29T05:50:32.351Z,18.88
2022-09-29T05:53:05.223Z,18.70
2022-09-29T05:58:00.499Z,16.30
2022-09-29T06:00:28.144Z,17.05
2022-09-29T06:02:56.157Z,18.13
2022-09-29T06:05:41.740Z,17.90
2022-09-29T06:08:11.071Z,19.25
2022-09-29T06:10:38.759Z,22.50
2022-09-29T06:13:06.805Z,41.80
2022-09-29T06:15:34.590Z,17.40
2022-09-29T06:18:02.314Z,29.90
2022-09-29T06:20:30.244Z,18.30
2022-09-29T06:22:57.943Z,15.05
2022-09-29T06:25:39.480Z,14.75
2022-09-29T06:28:07.233Z,19.02
2022-09-29T06:30:34.955Z,17.13
2022-09-29T06:33:02.817Z,19.83
2022-09-29T06:35:47.981Z,19.73
2022-09-29T06:38:17.018Z,17.73
2022-09-29T06:40:46.270Z,16.70
2022-09-29T06:43:14.052Z,18.85
2022-09-29T06:45:41.920Z,14.68
2022-09-29T06:48:11.265Z,14.43
2022-09-29T06:50:38.946Z,15.02
2022-09-29T06:53:06.674Z,10.68
2022-09-29T06:55:43.564Z,12.65
2022-09-29T06:58:12.751Z,13.82
2022-09-29T07:00:40.473Z,15.05
2022-09-29T07:03:08.324Z,13.25
2022-09-29T07:05:36.032Z,11.85
2022-09-29T07:08:03.760Z,15.18
2022-09-29T07:10:31.549Z,12.48
2022-09-29T07:12:59.273Z,13.60
2022-09-29T07:15:31.752Z,13.63
2022-09-29T07:18:01.071Z,11.63
2022-09-29T07:20:30.483Z,12.40
2022-09-29T07:22:58.947Z,11.73
2022-09-29T07:25:47.352Z,18.10
2022-09-29T07:28:14.763Z,12.52
2022-09-29T07:30:44.024Z,13.23
2022-09-29T07:33:11.775Z,14.68
2022-09-29T07:35:40.226Z,13.77
2022-09-29T07:38:08.085Z,13.35
2022-09-29T07:40:35.845Z,13.05
2022-09-29T07:43:03.548Z,15.82
2022-09-29T07:45:31.338Z,21.48
2022-09-29T07:48:01.891Z,14.43
2022-09-29T07:50:32.454Z,16.40
2022-09-29T07:53:00.211Z,12.90
2022-09-29T07:55:27.893Z,14.80
2022-09-29T07:57:56.879Z,17.92
2022-09-29T08:00:24.736Z,15.20
2022-09-29T08:02:52.415Z,16.48
2022-09-29T08:05:21.467Z,13.82
2022-09-29T08:07:52.600Z,14.30
2022-09-29T08:10:20.304Z,14.68
2022-09-29T08:12:48.031Z,14.32
2022-09-29T08:15:15.808Z,14.25
2022-09-29T08:17:43.510Z,15.50
2022-09-29T08:20:11.197Z,15.50
2022-09-29T08:22:40.234Z,16.58
2022-09-29T08:25:08.595Z,18.35
2022-09-29T08:27:45.854Z,15.75
2022-09-29T08:30:18.214Z,16.52
2022-09-29T08:32:52.351Z,17.75
2022-09-29T08:35:20.550Z,20.23
2022-09-29T08:37:49.828Z,18.70
2022-09-29T08:40:18.988Z,24.50
2022-09-29T08:42:56.168Z,19.67
2022-09-29T08:45:29.478Z,21.38
2022-09-29T08:48:14.975Z,17.35
2022-09-29T08:50:53.844Z,19.35
2022-09-29T08:53:29.062Z,20.40
2022-09-29T08:55:59.742Z,20.33
2022-09-29T08:58:28.151Z,18.58
2022-09-29T09:01:06.513Z,18.02
2022-09-29T09:04:19.003Z,17.63
2022-09-29T09:06:58.370Z,17.65
2022-09-29T09:09:42.875Z,15.95
2022-09-29T09:12:26.239Z,15.82
2022-09-29T09:15:44.899Z,13.30
2022-09-29T09:18:34.216Z,16.23
2022-09-29T09:21:08.454Z,15.38
2022-09-29T09:23:50.496Z,17.63
2022-09-29T09:26:20.606Z,15.00
2022-09-29T09:28:54.458Z,14.27
2022-09-29T09:31:29.260Z,16.48
2022-09-29T09:34:06.534Z,15.93
2022-09-29T09:36:37.795Z,17.05
2022-09-29T09:39:14.392Z,15.68
2022-09-29T09:41:46.290Z,13.85
2022-09-29T09:44:17.730Z,13.60
2022-09-29T09:46:49.992Z,15.13
2022-09-29T09:49:23.330Z,14.27
2022-09-29T09:52:00.877Z,17.33
2022-09-29T09:54:34.993Z,13.90
2022-09-29T09:57:40.431Z,13.75
2022-09-29T10:00:13.163Z,14.70
2022-09-29T10:05:14.967Z,14.55
2022-09-29T10:07:43.266Z,15.30
2022-09-29T10:10:18.216Z,18.45
2022-09-29T10:12:47.608Z,17.52
2022-09-29T10:15:38.906Z,15.07
2022-09-29T10:18:13.415Z,13.90
2022-09-29T10:20:42.776Z,16.27
2022-09-29T10:23:24.806Z,13.68
2022-09-29T10:25:56.121Z,14.93
2022-09-29T10:28:27.696Z,14.55
2022-09-29T10:30:56.111Z,18.17
2022-09-29T10:33:27.131Z,16.13
2022-09-29T10:36:07.434Z,16.38
2022-09-29T10:38:37.396Z,15.18
2022-09-29T10:41:08.673Z,18.35
2022-09-29T10:43:40.087Z,14.63
2022-09-29T10:46:36.224Z,15.25
2022-09-29T10:49:14.382Z,18.65
2022-09-29T10:51:43.759Z,13.55
2022-09-29T10:54:17.010Z,16.58
2022-09-29T10:56:49.402Z,13.15
2022-09-29T10:59:19.441Z,15.25
2022-09-29T11:01:50.877Z,13.40
2022-09-29T11:04:23.818Z,14.70
2022-09-29T11:06:52.386Z,11.38
2022-09-29T11:09:32.201Z,14.07
2022-09-29T11:12:05.042Z,11.23
2022-09-29T11:14:43.559Z,15.90
2022-09-29T11:17:24.038Z,14.27
2022-09-29T11:19:54.131Z,12.93
2022-09-29T11:22:54.986Z,16.45
2022-09-29T11:25:41.260Z,12.02
2022-09-29T11:28:43.335Z,13.65
2022-09-29T11:31:25.045Z,15.38
2022-09-29T11:34:02.363Z,11.48
2022-09-29T11:36:39.320Z,12.52
2022-09-29T11:39:29.685Z,14.30
2022-09-29T11:42:16.659Z,15.52
2022-09-29T11:48:30.690Z,14.00
2022-09-29T11:51:06.031Z,16.17
2022-09-29T11:53:48.416Z,12.00
2022-09-29T11:56:26.532Z,15.20
2022-09-29T11:59:07.396Z,11.95
2022-09-29T12:01:52.587Z,10.93
2022-09-29T12:04:37.386Z,14.43
2022-09-29T12:07:18.002Z,11.30
2022-09-29T12:10:22.305Z,13.73
2022-09-29T12:13:03.499Z,11.07
2022-09-29T12:15:41.803Z,14.30
2022-09-29T12:18:15.131Z,12.32
2022-09-29T12:20:47.200Z,13.73
2022-09-29T12:23:17.276Z,12.63
2022-09-29T12:25:54.055Z,10.32
2022-09-29T12:28:28.633Z,6.30
2022-09-29T12:31:01.265Z,8.23
2022-09-29T12:36:29.331Z,7.80
2022-09-29T12:39:05.670Z,9.13
2022-09-29T12:41:43.381Z,10.85
2022-09-29T12:44:19.893Z,9.60
2022-09-29T12:46:54.326Z,8.23
2022-09-29T12:49:27.881Z,8.85
2022-09-29T12:51:58.499Z,10.77
2022-09-29T12:54:32.830Z,8.90
2022-09-29T12:57:05.128Z,10.38
2022-09-29T12:59:39.101Z,11.27
2022-09-29T13:02:28.033Z,9.65
2022-09-29T13:05:23.025Z,8.32
2022-09-29T13:08:32.469Z,11.77
2022-09-29T13:11:10.200Z,8.90
2022-09-29T13:14:18.219Z,14.25
2022-09-29T13:17:06.242Z,9.45
2022-09-29T13:20:11.346Z,7.82
2022-09-29T13:23:12.732Z,8.95
2022-09-29T13:25:49.597Z,8.30
2022-09-29T13:28:30.242Z,8.93
2022-09-29T13:31:04.788Z,6.13
2022-09-29T13:33:33.345Z,9.45
2022-09-29T13:36:02.026Z,7.13
2022-09-29T13:38:34.111Z,9.65
2022-09-29T13:41:15.254Z,11.75
2022-09-29T13:44:06.323Z,8.30
2022-09-29T13:46:41.785Z,6.65
2022-09-29T13:49:16.321Z,5.70
2022-09-29T13:51:47.878Z,10.38
2022-09-29T13:54:26.686Z,6.93
2022-09-29T13:57:16.134Z,5.40
2022-09-29T14:02:34.762Z,18.80
2022-09-29T14:08:16.787Z,6.53
2022-09-29T14:10:48.396Z,7.80
2022-09-29T14:13:23.845Z,5.53
2022-09-29T14:16:12.951Z,9.32
2022-09-29T14:18:47.135Z,7.25
2022-09-29T14:21:39.125Z,6.85
2022-09-29T14:24:45.623Z,10.40
2022-09-29T14:27:23.058Z,12.00
2022-09-29T14:30:09.407Z,9.02
2022-09-29T14:32:42.545Z,8.50
2022-09-29T14:35:18.650Z,5.82
2022-09-29T14:37:51.377Z,5.65
2022-09-29T14:40:31.492Z,8.60
2022-09-29T14:43:16.004Z,8.75
2022-09-29T14:46:26.349Z,6.75
2022-09-29T14:49:24.835Z,4.35
2022-09-29T14:52:01.170Z,5.90
2022-09-29T14:54:45.341Z,5.80
2022-09-29T14:57:34.174Z,7.35
2022-09-29T15:00:18.429Z,7.13
2022-09-29T15:02:55.423Z,9.43
2022-09-29T15:05:31.610Z,7.93
2022-09-29T15:08:02.227Z,8.15
2022-09-29T15:10:32.285Z,7.45
2022-09-29T15:13:24.285Z,5.72
2022-09-29T15:15:59.000Z,16.48
2022-09-29T15:18:44.434Z,6.72
2022-09-29T15:21:20.581Z,7.22
2022-09-29T15:24:08.274Z,6.38
2022-09-29T15:26:36.975Z,6.10
2022-09-29T15:29:07.711Z,6.32
2022-09-29T15:31:36.724Z,4.65
2022-09-29T15:34:05.557Z,5.53
2022-09-29T15:36:37.541Z,6.10
2022-09-29T15:39:07.847Z,5.75
2022-09-29T15:41:36.480Z,5.28
2022-09-29T15:44:13.469Z,8.48
2022-09-29T15:46:48.894Z,8.32
2022-09-29T15:49:19.541Z,8.10
2022-09-29T15:51:58.645Z,12.23
2022-09-29T15:54:27.674Z,11.98
2022-09-29T15:57:12.688Z,7.65
2022-09-29T15:59:51.492Z,11.80
2022-09-29T16:02:25.079Z,8.75
2022-09-29T16:05:14.193Z,8.00
2022-09-29T16:07:50.886Z,8.77
2022-09-29T16:10:21.498Z,38.13
2022-09-29T16:12:51.856Z,46.00
2022-09-29T16:15:27.773Z,35.45
2022-09-29T16:17:55.691Z,24.33
2022-09-29T16:20:28.440Z,20.80
2022-09-29T16:25:27.739Z,14.43
2022-09-29T16:27:57.666Z,13.98
2022-09-29T16:30:28.392Z,16.73
2022-09-29T16:33:03.298Z,14.88
2022-09-29T16:35:43.059Z,10.18
2022-09-29T16:38:33.201Z,9.80
2022-09-29T16:41:01.810Z,6.50
2022-09-29T16:43:31.706Z,7.10
2022-09-29T16:46:02.046Z,11.00
2022-09-29T16:48:32.835Z,5.38
2022-09-29T16:51:08.357Z,7.53
2022-09-29T16:53:41.542Z,4.50
2022-09-29T16:56:20.299Z,4.10
2022-09-29T16:59:04.273Z,2.58
2022-09-29T17:01:32.832Z,2.30
2022-09-29T17:04:00.627Z,3.60
2022-09-29T17:06:28.789Z,7.00
2022-09-29T17:08:58.229Z,3.45
2022-09-29T17:11:25.957Z,2.83
2022-09-29T17:13:53.671Z,8.63
2022-09-29T17:16:22.119Z,2.47
2022-09-29T17:18:51.245Z,6.38
2022-09-29T17:21:19.006Z,2.60
2022-09-29T17:23:47.017Z,2.50
2022-09-29T17:26:39.811Z,4.45
2022-09-29T17:29:07.553Z,3.67
2022-09-29T17:31:35.288Z,4.38
2022-09-29T17:34:07.881Z,3.15
2022-09-29T17:36:36.688Z,2.97
2022-09-29T17:39:04.683Z,3.00
2022-09-29T17:41:34.018Z,4.63
2022-09-29T17:44:09.908Z,4.45
2022-09-29T17:46:38.598Z,2.45
2022-09-29T17:49:10.649Z,4.60
2022-09-29T17:51:38.366Z,3.55
2022-09-29T17:54:06.085Z,4.50
2022-09-29T17:56:40.200Z,2.78
2022-09-29T17:59:10.312Z,3.67
2022-09-29T18:01:39.491Z,2.50
2022-09-29T18:04:08.279Z,4.95
2022-09-29T18:06:37.895Z,7.47
2022-09-29T18:09:15.324Z,8.48
2022-09-29T18:11:44.650Z,7.50
2022-09-29T18:14:12.355Z,6.43
2022-09-29T18:16:40.151Z,9.15
2022-09-29T18:19:17.138Z,9.32
2022-09-29T18:21:45.233Z,7.57
2022-09-29T18:24:13.242Z,7.15
2022-09-29T18:26:46.234Z,8.65
2022-09-29T18:29:18.971Z,7.43
2022-09-29T18:31:47.016Z,7.65
2022-09-29T18:34:16.670Z,10.68
2022-09-29T18:36:45.789Z,13.57
2022-09-29T18:39:14.305Z,13.13
2022-09-29T18:41:42.196Z,10.20
2022-09-29T18:44:15.332Z,10.07
2022-09-29T18:46:44.593Z,9.35
2022-09-29T18:49:13.911Z,8.02
2022-09-29T18:51:41.958Z,8.80
2022-09-29T18:54:09.831Z,6.38
2022-09-29T18:56:37.704Z,7.90
2022-09-29T18:59:07.713Z,5.45
2022-09-29T19:01:36.850Z,4.78
2022-09-29T19:04:05.357Z,4.78
2022-09-29T19:06:33.329Z,7.65
2022-09-29T19:09:01.176Z,4.45
2022-09-29T19:11:28.984Z,6.22
2022-09-29T19:13:56.776Z,7.70
2022-09-29T19:16:28.007Z,3.33
2022-09-29T19:18:57.259Z,3.17
2022-09-29T19:21:25.078Z,4.75
2022-09-29T19:23:52.864Z,4.25
2022-09-29T19:26:23.041Z,4.13
2022-09-29T19:28:51.427Z,3.40
2022-09-29T19:31:21.412Z,6.18
2022-09-29T19:33:50.669Z,5.68
2022-09-29T19:36:21.848Z,23.20
2022-09-29T19:38:49.648Z,8.40
2022-09-29T19:41:19.952Z,6.47
2022-09-29T19:43:48.289Z,5.65
2022-09-29T19:46:17.263Z,4.40
2022-09-29T19:48:45.435Z,5.22
2022-09-29T19:51:32.931Z,4.82
2022-09-29T19:54:14.594Z,7.13
2022-09-29T19:56:44.474Z,4.00
2022-09-29T19:59:14.223Z,6.68
2022-09-29T20:01:42.271Z,3.55
2022-09-29T20:04:11.624Z,3.60
2022-09-29T20:06:39.893Z,5.60
2022-09-29T20:09:09.937Z,5.93
2022-09-29T20:11:38.056Z,3.97
2022-09-29T20:14:08.368Z,5.22
2022-09-29T20:16:38.723Z,12.70
2022-09-29T20:19:08.284Z,5.38
2022-09-29T20:21:39.099Z,5.43
2022-09-29T20:24:06.899Z,7.57
2022-09-29T20:26:36.934Z,7.25
2022-09-29T20:29:04.672Z,8.10
2022-09-29T20:31:34.530Z,11.27
2022-09-29T20:34:02.308Z,7.70
2022-09-29T20:36:30.220Z,7.78
2022-09-29T20:38:58.153Z,6.38
2022-09-29T20:41:26.024Z,5.85
2022-09-29T20:43:55.410Z,7.63
2022-09-29T20:46:27.379Z,6.35
2022-09-29T20:48:56.603Z,9.63
2022-09-29T20:51:25.536Z,6.07
2022-09-29T20:53:55.102Z,7.03
2022-09-29T20:56:31.542Z,7.53
2022-09-29T20:59:01.237Z,9.80
2022-09-29T21:01:30.687Z,7.40
2022-09-29T21:04:00.000Z,7.38
2022-09-29T21:06:30.220Z,9.63
2022-09-29T21:08:59.514Z,8.77
2022-09-29T21:11:27.831Z,9.13
2022-09-29T21:13:57.823Z,7.40
2022-09-29T21:16:27.174Z,9.20
2022-09-29T21:18:55.302Z,7.38
2022-09-29T21:21:23.202Z,7.75
2022-09-29T21:23:50.906Z,9.20
2022-09-29T21:26:20.476Z,8.07
2022-09-29T21:28:50.618Z,9.23
2022-09-29T21:31:20.335Z,8.75
2022-09-29T21:33:54.376Z,8.32
2022-09-29T21:36:23.917Z,6.78
2022-09-29T21:38:52.671Z,10.82
2022-09-29T21:41:21.989Z,7.72
2022-09-29T21:43:51.385Z,10.48
2022-09-29T21:46:20.462Z,6.55
2022-09-29T21:48:53.263Z,9.20
2022-09-29T21:53:50.815Z,6.63
2022-09-29T21:56:21.248Z,8.45
2022-09-29T21:58:50.552Z,8.50
2022-09-29T22:01:19.170Z,8.45
2022-09-29T22:03:48.922Z,6.28
2022-09-29T22:06:20.777Z,6.55
2022-09-29T22:08:49.795Z,7.43
2022-09-29T22:11:20.516Z,7.57
2022-09-29T22:13:50.220Z,5.13
2022-09-29T22:16:19.715Z,7.65
2022-09-29T22:18:56.278Z,6.50
2022-09-29T22:21:35.244Z,6.85
2022-09-29T22:24:04.276Z,6.47
2022-09-29T22:26:33.070Z,8.70
2022-09-29T22:29:01.807Z,8.27
2022-09-29T22:31:30.021Z,7.18
2022-09-29T22:33:59.914Z,5.75
2022-09-29T22:36:30.306Z,4.38
2022-09-29T22:38:59.501Z,5.93
2022-09-29T22:41:27.272Z,7.22
2022-09-29T22:43:56.132Z,9.23
2022-09-29T22:46:25.768Z,7.03
2022-09-29T22:48:53.983Z,7.28
2022-09-29T22:51:21.935Z,6.97
2022-09-29T22:53:49.847Z,6.38
2022-09-29T22:56:21.390Z,7.18
2022-09-29T22:58:49.837Z,8.85
2022-09-29T23:01:21.271Z,7.03
2022-09-29T23:03:50.211Z,8.82
2022-09-29T23:06:17.975Z,7.70
2022-09-29T23:08:45.800Z,8.98
2022-09-29T23:11:18.652Z,9.27
2022-09-29T23:16:15.673Z,6.18
2022-09-29T23:18:45.466Z,6.80
2022-09-29T23:21:15.144Z,7.68
2022-09-29T23:23:43.054Z,10.63
2022-09-29T23:26:11.324Z,7.63
2022-09-29T23:28:40.527Z,8.80
2022-09-29T23:31:09.431Z,5.32
2022-09-29T23:33:37.443Z,7.22
2022-09-29T23:36:07.131Z,7.00
2022-09-29T23:38:52.419Z,5.20
2022-09-29T23:41:20.600Z,6.70
2022-09-29T23:43:49.625Z,5.50
2022-09-29T23:46:17.405Z,5.47
2022-09-29T23:48:45.160Z,6.32
2022-09-29T23:51:12.989Z,5.70
2022-09-29T23:53:40.708Z,6.68
2022-09-29T23:56:08.901Z,10.18
2022-09-29T23:58:36.556Z,6.97
